Portada
METAR-TAF:

METAR-TAF

Aeroports :

Pittsburg, Kansas, Estats Units d'Amèrica

latitud: 37-26-58N, longitud: 094-43-52W, altitud: 290 m

Observació

L'informe es va fer fa 14 minuts, a les 00:35 UTC
Vent 6 kt del Nord
Temperatura 1°C
Humitat 93%
Pressió 1021 hPa
Visibilitat: 16.1 km
Cel cobert a una alçada de 900 ft

METAR: KPTS 040035Z AUTO 01006KT 10SM OVC009 01/00 A3015 RMK AO2 T00050000

Hora: 19:49 (00:49 UTC)


TAF: manca

Observacions i pronòstics meteorològics de més de 4000 aeroports (METAR i TAF).

Les estacions disponibles són els punts grocs i vermells al mapa.

Posi el ratolí al punt desitjat per veure el nom de l'estació.

Feu clic per veure les observacions i els pronòstics meteorològics.

Per canviar el mapa: feu clic els botons verds amb una creu de color negre per apropar; al botó verd amb un guió per allunyar la imatge; o en les fletxes verdes per a mapes adjacents.


METAR-TAF: